Easton, Illinois
Current Conditions -  °F | °C
As of 9:15 PM on Sunday 21 Dec 2014 (Local Time) from KAAA Reporting Station
Overcast Overcast  
Wind Chill: 31°   Ceiling: 3900
Heat Index: 37°   Visibility: 10mi
Dew Point: 32°   Wind: 7mph
Humidity: 84%   Direction: 160°SSE
Pressure: 30.02"   Gusts: NA
Location:  40.23°N, 89.84°W
Report Text: KAAA 220315Z AUTO 16006KT 10SM OVC039 03/00 A3002 RMK AO2 T00250000
Loading
Personal Weather Stations






























Interactive Weather Map New forecast layout! Learn more

10-Day Weather Forecast

Advertisements
Track Severe Weather on mobile